createdAt,value
2022-12-19T00:00:05.547Z,102651.06
2022-12-19T00:03:35.529Z,102655.09
2022-12-19T00:06:43.618Z,102647.41
2022-12-19T00:09:46.515Z,102656.34
2022-12-19T00:12:49.556Z,102656.72
2022-12-19T00:15:52.199Z,102661.50
2022-12-19T00:18:58.091Z,102663.87
2022-12-19T00:22:00.496Z,102662.97
2022-12-19T00:25:04.222Z,102660.41
2022-12-19T00:28:06.884Z,102659.66
2022-12-19T00:31:11.570Z,102658.03
2022-12-19T00:34:14.087Z,102658.75
2022-12-19T00:37:17.119Z,102661.88
2022-12-19T00:40:19.977Z,102654.53
2022-12-19T00:43:23.012Z,102663.16
2022-12-19T00:46:26.347Z,102654.34
2022-12-19T00:49:31.559Z,102655.28
2022-12-19T00:52:34.503Z,102651.62
2022-12-19T00:55:38.985Z,102654.53
2022-12-19T00:58:46.603Z,102662.22
2022-12-19T01:01:50.413Z,102649.06
2022-12-19T01:04:52.969Z,102647.97
2022-12-19T01:07:56.007Z,102640.25
2022-12-19T01:14:02.962Z,102646.87
2022-12-19T01:17:05.490Z,102646.50
2022-12-19T01:20:09.185Z,102635.50
2022-12-19T01:23:11.773Z,102637.69
2022-12-19T01:26:14.901Z,102629.84
2022-12-19T01:29:17.340Z,102627.81
2022-12-19T01:32:21.923Z,102620.13
2022-12-19T01:35:24.770Z,102617.94
2022-12-19T01:38:27.824Z,102603.84
2022-12-19T01:41:30.234Z,102600.41
2022-12-19T01:44:34.266Z,102598.56
2022-12-19T01:47:53.691Z,102595.63
2022-12-19T01:51:02.090Z,102597.44
2022-12-19T01:54:09.748Z,102593.03
2022-12-19T01:57:15.699Z,102593.78
2022-12-19T02:00:18.765Z,102583.72
2022-12-19T02:03:32.354Z,102588.50
2022-12-19T02:06:35.512Z,102589.03
2022-12-19T02:09:40.157Z,102589.56
2022-12-19T02:12:45.408Z,102587.72
2022-12-19T02:15:59.496Z,102591.03
2022-12-19T02:19:21.932Z,102594.88
2022-12-19T02:22:54.957Z,102598.16
2022-12-19T02:26:07.595Z,102590.47
2022-12-19T02:29:23.872Z,102593.78
2022-12-19T02:32:32.231Z,102597.06
2022-12-19T02:35:44.751Z,102604.41
2022-12-19T02:38:56.427Z,102604.41
2022-12-19T02:42:01.388Z,102605.12
2022-12-19T02:45:08.056Z,102605.12
2022-12-19T02:48:16.165Z,102601.25
2022-12-19T02:51:21.982Z,102606.56
2022-12-19T02:54:25.710Z,102605.31
2022-12-19T02:57:47.615Z,102611.31
2022-12-19T03:00:59.767Z,102606.53
2022-12-19T03:04:24.368Z,102600.69
2022-12-19T03:07:57.653Z,102606.16
2022-12-19T03:11:03.665Z,102592.78
2022-12-19T03:14:11.923Z,102597.75
2022-12-19T03:17:15.810Z,102585.13
2022-12-19T03:20:36.881Z,102588.16
2022-12-19T03:23:40.847Z,102582.34
2022-12-19T03:27:07.918Z,102571.66
2022-12-19T03:30:13.463Z,102568.78
2022-12-19T03:33:19.604Z,102570.28
2022-12-19T03:36:29.047Z,102565.50
2022-12-19T03:39:32.870Z,102559.66
2022-12-19T03:42:58.233Z,102558.94
2022-12-19T03:46:15.872Z,102564.78
2022-12-19T03:49:18.724Z,102568.25
2022-12-19T03:52:27.257Z,102567.34
2022-12-19T03:55:48.409Z,102573.03
2022-12-19T03:58:58.489Z,102572.78
2022-12-19T04:02:03.427Z,102578.66
2022-12-19T04:05:10.173Z,102572.78
2022-12-19T04:08:13.485Z,102570.22
2022-12-19T04:11:20.415Z,102560.72
2022-12-19T04:14:28.388Z,102567.69
2022-12-19T04:17:44.174Z,102573.00
2022-12-19T04:20:58.676Z,102571.72
2022-12-19T04:24:08.893Z,102573.72
2022-12-19T04:27:13.451Z,102570.25
2022-12-19T04:30:18.384Z,102575.75
2022-12-19T04:33:20.861Z,102580.47
2022-12-19T04:36:26.288Z,102571.25
2022-12-19T04:39:29.540Z,102577.16
2022-12-19T04:42:32.554Z,102574.22
2022-12-19T04:45:35.237Z,102571.84
2022-12-19T04:48:39.143Z,102575.09
2022-12-19T04:51:41.677Z,102580.41
2022-12-19T04:54:44.652Z,102573.22
2022-12-19T04:57:47.246Z,102570.16
2022-12-19T05:00:50.197Z,102578.41
2022-12-19T05:03:56.571Z,102574.34
2022-12-19T05:07:01.767Z,102574.34
2022-12-19T05:10:04.978Z,102574.50
2022-12-19T05:13:09.228Z,102574.00
2022-12-19T05:16:12.768Z,102578.59
2022-12-19T05:19:16.027Z,102580.41
2022-12-19T05:22:18.510Z,102590.78
2022-12-19T05:25:21.538Z,102584.22
2022-12-19T05:28:23.992Z,102574.84
2022-12-19T05:31:27.070Z,102568.63
2022-12-19T05:34:29.641Z,102568.06
2022-12-19T05:37:32.628Z,102561.28
2022-12-19T05:40:35.366Z,102559.47
2022-12-19T05:43:38.758Z,102563.88
2022-12-19T05:46:42.148Z,102565.50
2022-12-19T05:49:45.239Z,102574.84
2022-12-19T05:52:47.846Z,102564.22
2022-12-19T05:55:51.116Z,102562.75
2022-12-19T05:58:54.629Z,102568.06
2022-12-19T06:01:57.849Z,102564.03
2022-12-19T06:05:02.237Z,102557.25
2022-12-19T06:08:05.573Z,102564.94
2022-12-19T06:11:10.218Z,102565.66
2022-12-19T06:14:12.953Z,102576.13
2022-12-19T06:17:15.729Z,102577.56
2022-12-19T06:20:18.476Z,102585.78
2022-12-19T06:23:21.273Z,102580.66
2022-12-19T06:26:24.063Z,102577.00
2022-12-19T06:29:26.858Z,102587.09
2022-12-19T06:32:32.393Z,102585.78
2022-12-19T06:35:39.007Z,102584.66
2022-12-19T06:38:41.786Z,102582.37
2022-12-19T06:42:03.147Z,102587.81
2022-12-19T06:45:06.427Z,102597.38
2022-12-19T06:48:09.314Z,102592.78
2022-12-19T06:51:12.180Z,102592.97
2022-12-19T06:54:15.254Z,102599.75
2022-12-19T06:57:18.556Z,102599.03
2022-12-19T07:00:21.872Z,102588.34
2022-12-19T07:03:31.964Z,102595.87
2022-12-19T07:06:34.788Z,102581.22
2022-12-19T07:09:37.621Z,102599.22
2022-12-19T07:12:40.394Z,102599.37
2022-12-19T07:15:43.303Z,102597.31
2022-12-19T07:18:46.087Z,102609.66
2022-12-19T07:21:49.196Z,102611.59
2022-12-19T07:24:52.202Z,102605.38
2022-12-19T07:27:55.456Z,102606.44
2022-12-19T07:30:58.219Z,102603.56
2022-12-19T07:34:01.066Z,102609.78
2022-12-19T07:37:04.100Z,102601.66
2022-12-19T07:40:07.285Z,102607.88
2022-12-19T07:43:10.402Z,102615.44
2022-12-19T07:46:13.704Z,102605.16
2022-12-19T07:49:21.096Z,102597.28
2022-12-19T07:52:25.932Z,102596.88
2022-12-19T07:55:28.899Z,102597.97
2022-12-19T07:58:31.826Z,102609.53
2022-12-19T08:01:34.742Z,102610.41
2022-12-19T08:04:38.005Z,102628.69
2022-12-19T08:07:40.869Z,102618.19
2022-12-19T08:10:44.226Z,102609.00
2022-12-19T08:13:48.379Z,102606.44
2022-12-19T08:17:19.352Z,102616.66
2022-12-19T08:20:13.904Z,102632.00
2022-12-19T08:23:16.889Z,102634.00
2022-12-19T08:26:35.709Z,102626.97
2022-12-19T08:29:41.694Z,102626.87
2022-12-19T08:32:45.322Z,102623.78
2022-12-19T08:35:48.407Z,102622.78
2022-12-19T08:38:51.379Z,102617.00
2022-12-19T08:41:54.719Z,102600.66
2022-12-19T08:44:57.138Z,102602.66
2022-12-19T08:48:00.133Z,102611.03
2022-12-19T08:51:07.894Z,102599.56
2022-12-19T08:54:12.239Z,102594.50
2022-12-19T08:57:15.344Z,102603.78
2022-12-19T09:00:18.638Z,102578.06
2022-12-19T09:03:23.135Z,102579.59
2022-12-19T09:06:27.821Z,102589.81
2022-12-19T09:09:30.378Z,102575.59
2022-12-19T09:12:33.783Z,102581.06
2022-12-19T09:15:36.311Z,102572.34
2022-12-19T09:18:47.915Z,102579.34
2022-12-19T09:21:51.029Z,102570.34
2022-12-19T09:24:54.462Z,102578.16
2022-12-19T09:28:26.520Z,102580.66
2022-12-19T09:31:25.352Z,102597.66
2022-12-19T09:34:36.786Z,102613.66
2022-12-19T09:37:41.365Z,102605.63
2022-12-19T09:41:10.167Z,102577.06
2022-12-19T09:44:52.240Z,102564.72
2022-12-19T09:47:57.887Z,102553.88
2022-12-19T09:51:12.482Z,102548.72
2022-12-19T09:54:24.589Z,102542.69
2022-12-19T09:57:41.082Z,102550.31
2022-12-19T10:00:56.006Z,102537.88
2022-12-19T10:04:10.613Z,102541.97
2022-12-19T10:07:36.249Z,102534.06
2022-12-19T10:12:42.763Z,102518.50
2022-12-19T10:14:48.226Z,102512.72
2022-12-19T10:18:01.978Z,102507.97
2022-12-19T10:22:15.602Z,102511.72
2022-12-19T10:25:37.908Z,102515.44
2022-12-19T10:28:56.450Z,102522.56
2022-12-19T10:32:20.913Z,102525.69
2022-12-19T10:35:30.777Z,102522.03
2022-12-19T10:38:51.631Z,102512.00
2022-12-19T10:41:59.598Z,102503.53
2022-12-19T10:45:10.001Z,102505.56
2022-12-19T10:48:17.624Z,102492.69
2022-12-19T10:51:28.570Z,102481.00
2022-12-19T10:54:37.421Z,102477.69
2022-12-19T10:57:40.597Z,102483.13
2022-12-19T11:01:10.498Z,102488.88
2022-12-19T11:04:36.193Z,102477.56
2022-12-19T11:07:40.265Z,102475.06
2022-12-19T11:13:33.747Z,102476.09
2022-12-19T11:18:25.708Z,102473.56
2022-12-19T11:24:24.712Z,102465.88
2022-12-19T11:29:25.902Z,102471.81
2022-12-19T11:29:34.562Z,102472.84
2022-12-19T11:30:05.575Z,102471.31
2022-12-19T11:32:31.896Z,102467.69
2022-12-19T11:35:36.968Z,102457.47
2022-12-19T11:38:54.273Z,102458.62
2022-12-19T11:42:08.778Z,102457.16
2022-12-19T11:45:39.568Z,102449.81
2022-12-19T11:48:58.847Z,102436.78
2022-12-19T11:53:04.228Z,102424.75
2022-12-19T11:56:15.988Z,102419.63
2022-12-19T11:59:31.472Z,102418.69
2022-12-19T12:02:59.085Z,102416.06
2022-12-19T12:06:11.919Z,102406.53
2022-12-19T12:11:22.027Z,102404.56
2022-12-19T12:21:25.008Z,102404.19
2022-12-19T12:31:01.918Z,102393.94
2022-12-19T12:31:15.365Z,102407.28
2022-12-19T12:31:52.223Z,102404.72
2022-12-19T12:31:58.821Z,102399.06
2022-12-19T12:39:20.958Z,102395.78
2022-12-19T12:42:59.181Z,102396.03
2022-12-19T12:46:05.402Z,102395.72
2022-12-19T12:49:37.873Z,102394.62
2022-12-19T12:52:47.951Z,102398.59
2022-12-19T12:55:54.732Z,102402.25
2022-12-19T12:58:57.089Z,102390.16
2022-12-19T13:02:13.881Z,102394.41
2022-12-19T13:05:22.589Z,102393.78
2022-12-19T13:08:35.919Z,102383.06
2022-12-19T13:12:07.225Z,102384.75
2022-12-19T13:15:27.185Z,102395.44
2022-12-19T13:18:38.806Z,102393.56
2022-12-19T13:22:03.482Z,102384.62
2022-12-19T13:25:24.837Z,102390.25
2022-12-19T13:28:30.198Z,102374.31
2022-12-19T13:31:35.952Z,102387.91
2022-12-19T13:34:39.412Z,102377.81
2022-12-19T13:39:54.166Z,102376.22
2022-12-19T13:41:58.571Z,102383.72
2022-12-19T13:45:32.279Z,102381.63
2022-12-19T13:48:41.593Z,102366.13
2022-12-19T13:51:51.890Z,102372.03
2022-12-19T13:54:57.412Z,102370.50
2022-12-19T13:58:04.294Z,102377.00
2022-12-19T14:01:21.601Z,102381.84
2022-12-19T14:04:27.606Z,102372.56
2022-12-19T14:07:39.869Z,102373.16
2022-12-19T14:11:41.669Z,102369.91
2022-12-19T14:14:34.999Z,102373.50
2022-12-19T14:17:37.882Z,102383.88
2022-12-19T14:22:03.706Z,102370.47
2022-12-19T14:24:24.992Z,102381.78
2022-12-19T14:28:25.154Z,102370.28
2022-12-19T14:31:05.865Z,102367.66
2022-12-19T14:34:46.676Z,102365.91
2022-12-19T14:38:21.247Z,102377.69
2022-12-19T14:41:41.009Z,102369.44
2022-12-19T14:54:01.594Z,102376.75
2022-12-19T14:54:11.399Z,102380.72
2022-12-19T14:54:22.085Z,102379.91
2022-12-19T14:56:19.781Z,102384.06
2022-12-19T14:58:56.976Z,102381.47
2022-12-19T15:02:05.998Z,102377.19
2022-12-19T15:05:15.124Z,102373.88
2022-12-19T15:09:17.546Z,102374.44
2022-12-19T15:14:51.381Z,102367.97
2022-12-19T15:15:56.380Z,102384.38
2022-12-19T15:19:01.614Z,102391.16
2022-12-19T15:22:04.924Z,102395.22
2022-12-19T15:25:17.564Z,102394.75
2022-12-19T15:28:52.443Z,102390.59
2022-12-19T15:31:55.338Z,102387.00
2022-12-19T15:34:58.282Z,102385.72
2022-12-19T15:38:01.069Z,102393.13
2022-12-19T15:41:08.867Z,102395.94
2022-12-19T15:44:22.625Z,102397.59
2022-12-19T15:47:29.177Z,102393.00
2022-12-19T15:50:32.430Z,102398.69
2022-12-19T15:53:41.054Z,102387.09
2022-12-19T15:56:49.543Z,102388.97
2022-12-19T15:59:52.765Z,102384.81
2022-12-19T16:03:23.989Z,102381.00
2022-12-19T16:06:19.380Z,102387.28
2022-12-19T16:09:27.030Z,102378.16
2022-12-19T16:12:42.633Z,102369.56
2022-12-19T16:15:46.125Z,102374.91
2022-12-19T16:18:49.406Z,102375.84
2022-12-19T16:21:52.227Z,102375.69
2022-12-19T16:24:55.736Z,102371.09
2022-12-19T16:27:59.526Z,102371.44
2022-12-19T16:31:16.161Z,102364.66
2022-12-19T16:34:22.359Z,102370.53
2022-12-19T16:37:31.788Z,102359.84
2022-12-19T16:40:35.042Z,102363.28
2022-12-19T16:43:42.472Z,102354.34
2022-12-19T16:46:50.348Z,102350.69
2022-12-19T16:49:54.244Z,102348.28
2022-12-19T16:52:57.712Z,102341.84
2022-12-19T16:56:01.189Z,102346.97
2022-12-19T16:59:10.194Z,102341.94
2022-12-19T17:02:39.285Z,102328.25
2022-12-19T17:05:41.897Z,102337.03
2022-12-19T17:08:45.673Z,102347.72
2022-12-19T17:11:51.570Z,102357.25
2022-12-19T17:14:54.690Z,102357.06
2022-12-19T17:18:00.685Z,102350.69
2022-12-19T17:21:03.983Z,102349.38
2022-12-19T17:24:12.989Z,102349.28
2022-12-19T17:27:17.539Z,102359.56
2022-12-19T17:30:21.167Z,102357.91
2022-12-19T17:33:32.044Z,102348.41
2022-12-19T17:36:37.536Z,102360.47
2022-12-19T17:39:42.299Z,102363.38
2022-12-19T17:42:45.001Z,102360.06
2022-12-19T17:45:50.379Z,102362.81
2022-12-19T17:48:53.931Z,102361.31
2022-12-19T17:51:58.887Z,102360.41
2022-12-19T17:55:14.280Z,102371.50
2022-12-19T17:58:17.516Z,102370.91
2022-12-19T18:01:22.109Z,102364.63
2022-12-19T18:04:27.439Z,102368.69
2022-12-19T18:07:29.938Z,102366.84
2022-12-19T18:10:33.014Z,102357.34
2022-12-19T18:13:35.842Z,102363.03
2022-12-19T18:16:39.243Z,102364.69
2022-12-19T18:19:41.850Z,102364.12
2022-12-19T18:22:45.581Z,102351.59
2022-12-19T18:25:48.855Z,102359.13
2022-12-19T18:28:52.201Z,102367.34
2022-12-19T18:31:55.373Z,102368.84
2022-12-19T18:34:58.317Z,102360.97
2022-12-19T18:38:03.747Z,102355.69
2022-12-19T18:41:10.978Z,102354.00
2022-12-19T18:44:13.841Z,102341.94
2022-12-19T18:47:21.662Z,102332.56
2022-12-19T18:50:26.575Z,102335.31
2022-12-19T18:53:35.173Z,102326.09
2022-12-19T18:56:38.571Z,102316.00
2022-12-19T18:59:41.718Z,102307.78
2022-12-19T19:02:57.181Z,102302.53
2022-12-19T19:06:01.260Z,102304.75
2022-12-19T19:09:03.837Z,102305.66
2022-12-19T19:12:08.018Z,102295.22
2022-12-19T19:15:11.067Z,102289.69
2022-12-19T19:18:15.822Z,102288.09
2022-12-19T19:21:19.282Z,102289.34
2022-12-19T19:24:23.308Z,102304.00
2022-12-19T19:27:25.793Z,102286.44
2022-12-19T19:30:29.662Z,102293.81
2022-12-19T19:33:39.799Z,102295.47
2022-12-19T19:36:49.441Z,102293.63
2022-12-19T19:39:51.996Z,102292.91
2022-12-19T19:42:55.067Z,102292.91
2022-12-19T19:45:57.548Z,102286.84
2022-12-19T19:49:00.651Z,102283.53
2022-12-19T19:52:03.586Z,102279.31
2022-12-19T19:55:07.336Z,102282.97
2022-12-19T19:58:10.078Z,102271.22
2022-12-19T20:01:14.061Z,102276.91
2022-12-19T20:04:16.897Z,102277.59
2022-12-19T20:07:19.755Z,102273.19
2022-12-19T20:10:22.500Z,102279.41
2022-12-19T20:13:25.390Z,102276.69
2022-12-19T20:16:28.448Z,102286.12
2022-12-19T20:19:31.383Z,102286.69
2022-12-19T20:22:34.189Z,102285.88
2022-12-19T20:25:39.811Z,102296.06
2022-12-19T20:28:48.492Z,102295.22
2022-12-19T20:31:52.120Z,102296.97
2022-12-19T20:34:54.910Z,102296.06
2022-12-19T20:37:57.776Z,102287.34
2022-12-19T20:41:00.764Z,102284.28
2022-12-19T20:44:03.844Z,102270.81
2022-12-19T20:47:06.701Z,102265.84
2022-12-19T20:50:09.747Z,102272.94
2022-12-19T20:53:12.499Z,102273.53
2022-12-19T20:56:17.678Z,102271.88
2022-12-19T20:59:20.561Z,102282.13
2022-12-19T21:02:23.540Z,102280.63
2022-12-19T21:05:26.652Z,102271.88
2022-12-19T21:08:30.054Z,102277.34
2022-12-19T21:11:33.648Z,102271.19
2022-12-19T21:14:36.230Z,102270.37
2022-12-19T21:17:39.113Z,102268.97
2022-12-19T21:20:41.833Z,102266.41
2022-12-19T21:23:45.440Z,102261.25
2022-12-19T21:26:57.501Z,102269.06
2022-12-19T21:30:00.812Z,102266.16
2022-12-19T21:33:04.119Z,102272.03
2022-12-19T21:36:20.268Z,102275.53
2022-12-19T21:39:25.443Z,102273.13
2022-12-19T21:42:28.222Z,102259.53
2022-12-19T21:45:31.082Z,102248.91
2022-12-19T21:48:42.070Z,102251.19
2022-12-19T21:51:44.853Z,102254.31
2022-12-19T21:54:47.621Z,102247.59
2022-12-19T21:57:50.587Z,102247.88
2022-12-19T22:00:53.686Z,102253.91
2022-12-19T22:04:21.153Z,102263.81
2022-12-19T22:07:23.804Z,102264.72
2022-12-19T22:10:26.848Z,102264.72
2022-12-19T22:13:29.724Z,102270.44
2022-12-19T22:16:33.676Z,102258.00
2022-12-19T22:19:36.197Z,102257.72
2022-12-19T22:22:39.278Z,102251.31
2022-12-19T22:25:41.736Z,102242.69
2022-12-19T22:28:47.491Z,102240.88
2022-12-19T22:31:50.147Z,102235.81
2022-12-19T22:34:53.771Z,102239.87
2022-12-19T22:37:57.098Z,102225.00
2022-12-19T22:41:06.239Z,102212.34
2022-12-19T22:44:14.995Z,102212.72
2022-12-19T22:47:18.003Z,102208.59
2022-12-19T22:50:20.547Z,102211.91
2022-12-19T22:53:23.571Z,102208.25
2022-12-19T22:56:29.004Z,102200.38
2022-12-19T22:59:32.114Z,102187.16
2022-12-19T23:02:34.800Z,102179.56
2022-12-19T23:05:38.508Z,102165.97
2022-12-19T23:08:41.398Z,102165.44
2022-12-19T23:11:47.443Z,102162.25
2022-12-19T23:14:53.054Z,102169.44
2022-12-19T23:17:56.203Z,102170.59
2022-12-19T23:21:10.938Z,102179.78
2022-12-19T23:24:14.117Z,102181.09
2022-12-19T23:27:16.667Z,102173.53
2022-12-19T23:30:20.617Z,102163.97
2022-12-19T23:33:23.211Z,102162.22
2022-12-19T23:39:48.856Z,102163.16
2022-12-19T23:42:51.847Z,102167.00
2022-12-19T23:45:54.819Z,102161.56
2022-12-19T23:48:57.777Z,102166.81
2022-12-19T23:52:00.453Z,102148.87
2022-12-19T23:55:03.761Z,102149.47
2022-12-19T23:58:13.608Z,102152.94
